Time;durP1;ratioP1;P1;durP2;ratioP2;P2;SDS_P1;SDS_P2;PMS_P1;PMS_P2;Temp;Humidity;BMP_temperature;BMP_pressure;BME280_temperature;BME280_humidity;BME280_pressure;Samples;Min_cycle;Max_cycle;Signal;HPM_P1;HPM_P2
2021/03/23 00:00:15;;;;;;;23.73;13.37;;;;;;;1.70;92.04;96657.75;1278540;23;20359;-71
2021/03/23 00:00:51;;;;;;;22.53;12.90;;;;;;;1.70;92.17;96657.75;1278939;23;20325;-72
2021/03/23 00:01:21;;;;;;;26.92;14.25;;;;;;;1.75;92.68;96657.16;1278882;23;20446;-71
2021/03/23 00:01:52;;;;;;;25.93;13.47;;;;;;;1.67;92.34;96659.94;1278848;23;20004;-71
2021/03/23 00:02:22;;;;;;;23.80;13.33;;;;;;;1.68;92.66;96656.28;1278942;23;20004;-71
2021/03/23 00:02:57;;;;;;;23.70;12.83;;;;;;;1.71;92.49;96659.34;1278686;23;20004;-71
2021/03/23 00:03:29;;;;;;;26.98;14.23;;;;;;;1.70;91.84;96664.84;1278609;23;20422;-71
2021/03/23 00:03:59;;;;;;;24.50;13.43;;;;;;;1.72;92.21;96663.63;1278598;23;20004;-71
2021/03/23 00:04:30;;;;;;;23.50;13.97;;;;;;;1.74;92.22;96664.25;1278665;23;20008;-71
2021/03/23 00:05:00;;;;;;;23.40;13.63;;;;;;;1.68;92.41;96659.75;1278131;23;20005;-71
2021/03/23 00:05:31;;;;;;;26.13;14.03;;;;;;;1.69;92.18;96664.03;1278271;23;20335;-70
2021/03/23 00:06:01;;;;;;;28.53;14.83;;;;;;;1.70;92.59;96665.66;1278242;23;19997;-71
2021/03/23 00:06:31;;;;;;;28.97;14.80;;;;;;;1.72;92.01;96670.72;1278289;23;20012;-71
2021/03/23 00:07:02;;;;;;;25.70;13.10;;;;;;;1.73;92.26;96661.78;1278571;23;20442;-71
2021/03/23 00:07:32;;;;;;;23.57;14.07;;;;;;;1.71;92.40;96669.09;1278634;23;20083;-70
2021/03/23 00:08:06;;;;;;;28.63;14.10;;;;;;;1.71;92.09;96669.91;1278202;23;20427;-71
2021/03/23 00:08:41;;;;;;;24.92;13.80;;;;;;;1.73;92.09;96669.69;1278275;23;20004;-71
2021/03/23 00:09:12;;;;;;;28.30;14.50;;;;;;;1.71;91.81;96669.09;1278106;23;20767;-71
2021/03/23 00:09:42;;;;;;;25.97;13.77;;;;;;;1.66;92.40;96664.41;1272103;23;20060;-70
2021/03/23 00:10:13;;;;;;;27.63;14.80;;;;;;;1.68;92.75;96669.47;1273103;23;20053;-71
2021/03/23 00:10:43;;;;;;;27.93;14.93;;;;;;;1.67;92.29;96671.31;1278328;23;20001;-71
2021/03/23 00:11:34;;;;;;;22.13;13.57;;;;;;;1.69;92.24;96669.28;1272070;23;20005;-71
2021/03/23 00:12:04;;;;;;;;;;;;;;;1.66;92.81;96669.69;1278724;23;20012;-70
2021/03/23 00:12:36;;;;;;;26.60;13.70;;;;;;;1.66;92.50;96674.13;1278316;23;19908;-71
2021/03/23 00:13:07;;;;;;;29.67;14.25;;;;;;;1.66;92.30;96669.69;1278333;23;20070;-71
2021/03/23 00:13:38;;;;;;;26.30;13.57;;;;;;;1.71;92.04;96674.34;1278152;23;20001;-71
2021/03/23 00:14:10;;;;;;;21.75;13.88;;;;;;;1.68;91.90;96677.38;1278143;23;20063;-70
2021/03/23 00:14:41;;;;;;;27.17;14.50;;;;;;;1.65;92.61;96675.97;1278301;23;20288;-70
2021/03/23 00:15:12;;;;;;;26.42;15.52;;;;;;;1.71;92.25;96677.00;1278265;23;20012;-70
2021/03/23 00:15:43;;;;;;;28.80;15.23;;;;;;;1.64;92.92;96678.78;1278664;23;20096;-70
2021/03/23 00:16:15;;;;;;;27.92;14.70;;;;;;;1.63;92.53;96674.53;1278568;23;20126;-70
2021/03/23 00:16:45;;;;;;;23.85;14.38;;;;;;;1.65;93.03;96678.59;1278333;23;20028;-70
2021/03/23 00:17:16;;;;;;;22.40;14.87;;;;;;;1.69;92.76;96679.00;1278568;23;20005;-71
2021/03/23 00:17:47;;;;;;;31.70;18.53;;;;;;;1.72;92.60;96683.88;1278631;23;20009;-71
2021/03/23 00:18:17;;;;;;;34.83;18.65;;;;;;;1.70;92.39;96678.00;1278092;23;20035;-70
2021/03/23 00:18:48;;;;;;;29.67;15.23;;;;;;;1.66;92.59;96674.13;1278187;23;20001;-71
2021/03/23 00:19:19;;;;;;;26.70;14.63;;;;;;;1.70;92.20;96675.38;1278246;23;20020;-71
2021/03/23 00:19:49;;;;;;;29.77;16.13;;;;;;;1.69;92.91;96679.00;1278272;23;20005;-71
2021/03/23 00:20:21;;;;;;;26.43;15.80;;;;;;;1.70;92.95;96678.00;1277933;23;20016;-71
2021/03/23 00:20:52;;;;;;;25.95;14.73;;;;;;;1.69;92.46;96677.19;1278264;23;19989;-71
2021/03/23 00:21:22;;;;;;;29.00;15.40;;;;;;;1.70;92.92;96678.00;1278238;23;20068;-71
2021/03/23 00:21:53;;;;;;;29.20;15.73;;;;;;;1.73;92.46;96678.41;1278311;23;20363;-71
2021/03/23 00:22:23;;;;;;;28.50;15.37;;;;;;;1.68;92.31;96680.81;1278475;23;20302;-71
2021/03/23 00:22:54;;;;;;;26.57;15.20;;;;;;;1.72;92.12;96689.16;1278497;23;19989;-72
2021/03/23 00:23:24;;;;;;;27.97;14.20;;;;;;;1.70;91.87;96678.81;1278545;23;20001;-71
2021/03/23 00:23:55;;;;;;;26.57;14.10;;;;;;;1.69;92.20;96685.09;1278622;23;19993;-72
2021/03/23 00:24:25;;;;;;;21.47;13.23;;;;;;;1.73;91.81;96685.50;1278455;23;20040;-69
2021/03/23 00:24:55;;;;;;;24.13;14.97;;;;;;;1.70;92.37;96689.38;1278566;23;19992;-70
2021/03/23 00:25:26;;;;;;;26.07;14.23;;;;;;;1.76;92.23;96677.22;1278546;23;20000;-71
2021/03/23 00:25:56;;;;;;;28.30;14.67;;;;;;;1.74;91.72;96684.50;1278150;23;19997;-71
2021/03/23 00:26:27;;;;;;;25.73;14.63;;;;;;;1.74;92.33;96689.75;1271907;23;20459;-70
2021/03/23 00:26:57;;;;;;;24.33;14.40;;;;;;;1.73;91.90;96681.03;1271659;23;20008;-71
2021/03/23 00:27:28;;;;;;;27.60;14.60;;;;;;;1.71;92.27;96683.06;1271941;23;19997;-71
2021/03/23 00:27:58;;;;;;;25.07;13.97;;;;;;;1.67;92.21;96678.41;1278281;23;19997;-71
2021/03/23 00:28:29;;;;;;;29.27;14.77;;;;;;;1.72;92.24;96678.63;1278570;23;20029;-70
2021/03/23 00:28:59;;;;;;;22.63;13.93;;;;;;;1.73;91.90;96686.31;1278831;23;20359;-71
2021/03/23 00:29:29;;;;;;;25.70;15.07;;;;;;;1.74;91.61;96681.84;1278762;23;20021;-72
2021/03/23 00:30:00;;;;;;;25.37;14.70;;;;;;;1.76;91.98;96680.66;1278415;23;20005;-72
2021/03/23 00:30:30;;;;;;;25.07;14.93;;;;;;;1.73;91.71;96675.78;1278309;23;20027;-71
2021/03/23 00:31:01;;;;;;;22.43;13.10;;;;;;;1.72;91.93;96674.16;1278563;23;20112;-71
2021/03/23 00:31:32;;;;;;;24.67;14.90;;;;;;;1.72;91.79;96675.97;1278551;23;20032;-72
2021/03/23 00:32:07;;;;;;;30.52;14.88;;;;;;;1.73;91.98;96675.78;1284473;23;20063;-71
2021/03/23 00:32:37;;;;;;;22.65;13.77;;;;;;;1.75;91.62;96675.59;1278776;23;20002;-71
2021/03/23 00:33:07;;;;;;;28.40;14.63;;;;;;;1.71;92.03;96672.53;1278833;23;19997;-71
2021/03/23 00:33:38;;;;;;;26.10;13.93;;;;;;;1.70;92.36;96683.28;1278251;23;19997;-71
2021/03/23 00:34:08;;;;;;;26.97;14.70;;;;;;;1.68;92.30;96687.91;1278542;23;19997;-71
2021/03/23 00:34:39;;;;;;;26.57;14.60;;;;;;;1.71;92.01;96683.06;1278394;23;20005;-71
2021/03/23 00:35:10;;;;;;;31.80;15.33;;;;;;;1.68;92.41;96686.09;1278549;23;20032;-71
2021/03/23 00:35:40;;;;;;;25.83;14.45;;;;;;;1.67;92.27;96678.41;1278336;23;20132;-70
2021/03/23 00:36:11;;;;;;;29.53;15.53;;;;;;;1.66;91.97;96676.78;1278478;23;19997;-70
2021/03/23 00:36:41;;;;;;;24.57;15.10;;;;;;;1.70;91.95;96680.66;1278365;23;20001;-69
2021/03/23 00:37:11;;;;;;;30.57;14.97;;;;;;;1.65;92.23;96683.88;1278763;23;19993;-69
2021/03/23 00:37:42;;;;;;;25.53;14.33;;;;;;;1.64;92.48;96682.25;1278105;23;20044;-70
2021/03/23 00:38:13;;;;;;;24.80;14.27;;;;;;;1.64;92.63;96676.97;1278535;23;20000;-70
2021/03/23 00:38:44;;;;;;;27.00;15.27;;;;;;;1.64;92.64;96681.41;1272245;23;20004;-70
2021/03/23 00:39:14;;;;;;;24.87;15.60;;;;;;;1.62;92.69;96675.53;1272655;23;20598;-70
2021/03/23 00:39:45;;;;;;;24.97;15.00;;;;;;;1.64;92.20;96679.63;1278341;23;20008;-70
2021/03/23 00:40:16;;;;;;;26.43;15.00;;;;;;;1.61;92.86;96674.72;1266441;23;20002;-70
2021/03/23 00:40:47;;;;;;;26.70;15.10;;;;;;;1.56;92.56;96672.69;1272183;23;20045;-70
2021/03/23 00:41:17;;;;;;;32.00;15.33;;;;;;;1.57;92.21;96673.50;1272344;23;20331;-70
2021/03/23 00:41:47;;;;;;;25.70;15.03;;;;;;;1.56;92.45;96675.31;1272564;23;20002;-70
2021/03/23 00:42:18;;;;;;;26.27;15.30;;;;;;;1.56;92.97;96669.22;1278922;23;20032;-71
2021/03/23 00:42:48;;;;;;;27.47;15.23;;;;;;;1.56;93.26;96672.69;1278161;23;20427;-70
2021/03/23 00:43:19;;;;;;;27.33;14.30;;;;;;;1.54;93.14;96672.06;1278519;23;20001;-70
2021/03/23 00:43:49;;;;;;;39.57;16.30;;;;;;;1.54;92.69;96672.06;1278427;23;20005;-70
2021/03/23 00:44:19;;;;;;;25.87;13.90;;;;;;;1.53;92.89;96675.69;1266135;23;20395;-70
2021/03/23 00:44:50;;;;;;;30.67;14.70;;;;;;;1.50;93.23;96670.84;1260085;23;20050;-70
2021/03/23 00:45:20;;;;;;;27.57;14.50;;;;;;;1.52;93.15;96675.91;1254250;23;19999;-70
2021/03/23 00:45:51;;;;;;;25.00;14.20;;;;;;;1.48;92.79;96666.75;1254456;23;20086;-70
2021/03/23 00:46:21;;;;;;;31.97;16.83;;;;;;;1.49;92.85;96673.69;1266310;23;20324;-70
2021/03/23 00:46:52;;;;;;;26.50;14.77;;;;;;;1.47;93.52;96668.56;1272420;23;20296;-70
2021/03/23 00:47:22;;;;;;;24.53;14.77;;;;;;;1.46;93.71;96669.59;1278839;23;20327;-69
2021/03/23 00:47:52;;;;;;;32.60;15.60;;;;;;;1.48;93.56;96674.66;1278507;23;20442;-70
2021/03/23 00:48:23;;;;;;;28.47;15.67;;;;;;;1.48;92.93;96670.19;1278320;23;20002;-69
2021/03/23 00:48:53;;;;;;;28.57;16.13;;;;;;;1.49;93.43;96666.56;1278379;23;20043;-71
2021/03/23 00:49:24;;;;;;;26.53;15.40;;;;;;;1.51;93.46;96672.44;1278441;23;20359;-70
2021/03/23 00:49:54;;;;;;;32.00;15.17;;;;;;;1.51;93.32;96672.44;1278449;23;20001;-70
2021/03/23 00:50:25;;;;;;;29.40;16.10;;;;;;;1.50;93.30;96673.47;1278872;23;20001;-70
2021/03/23 00:50:55;;;;;;;25.37;15.30;;;;;;;1.50;93.08;96670.03;1278833;23;20001;-70
2021/03/23 00:51:25;;;;;;;29.10;15.20;;;;;;;1.45;93.13;96673.25;1278063;23;20012;-70
2021/03/23 00:51:56;;;;;;;26.97;16.07;;;;;;;1.45;93.55;96670.59;1278150;23;20009;-70
2021/03/23 00:52:26;;;;;;;26.43;14.90;;;;;;;1.41;93.21;96672.00;1272339;23;20005;-71
2021/03/23 00:52:57;;;;;;;25.83;14.30;;;;;;;1.40;93.29;96665.13;1272223;23;20005;-71
2021/03/23 00:53:27;;;;;;;27.53;15.27;;;;;;;1.40;93.77;96665.13;1278527;23;20001;-70
2021/03/23 00:53:57;;;;;;;27.67;14.97;;;;;;;1.39;94.01;96662.69;1278427;23;20419;-70
2021/03/23 00:54:28;;;;;;;29.70;16.13;;;;;;;1.39;93.43;96667.94;1278843;23;20028;-70
2021/03/23 00:54:58;;;;;;;28.93;15.30;;;;;;;1.38;93.84;96667.09;1278729;23;20008;-71
2021/03/23 00:55:29;;;;;;;25.10;15.13;;;;;;;1.38;94.28;96666.31;1278429;23;20001;-71
2021/03/23 00:56:01;;;;;;;28.13;15.50;;;;;;;1.40;94.06;96664.31;1278386;23;19997;-71
2021/03/23 00:56:32;;;;;;;26.23;15.65;;;;;;;1.42;93.94;96670.19;1278385;23;20295;-71
2021/03/23 00:57:02;;;;;;;28.87;15.60;;;;;;;1.40;94.07;96661.66;1278471;23;20004;-73
2021/03/23 00:57:33;;;;;;;30.13;15.47;;;;;;;1.39;93.95;96666.13;1278814;23;20004;-71
2021/03/23 00:58:03;;;;;;;25.70;15.33;;;;;;;1.38;93.49;96667.09;1278258;23;20005;-71
2021/03/23 00:58:33;;;;;;;23.63;14.90;;;;;;;1.36;93.50;96668.31;1278489;23;20323;-70
2021/03/23 00:59:04;;;;;;;24.30;14.43;;;;;;;1.37;93.84;96665.50;1272215;23;19997;-70
2021/03/23 00:59:34;;;;;;;27.63;15.40;;;;;;;1.38;93.39;96668.94;1272379;23;20609;-70
2021/03/23 01:00:06;;;;;;;33.70;15.27;;;;;;;1.35;93.94;96667.53;1272183;23;20460;-70
2021/03/23 01:00:37;;;;;;;27.58;15.98;;;;;;;1.37;94.37;96665.50;1278420;23;20001;-70
2021/03/23 01:01:07;;;;;;;28.57;16.40;;;;;;;1.33;94.14;96666.06;1272227;23;20073;-71
2021/03/23 01:01:38;;;;;;;33.00;15.63;;;;;;;1.37;94.61;96668.13;1272306;23;20001;-70
2021/03/23 01:02:08;;;;;;;26.10;15.90;;;;;;;1.38;94.09;96667.09;1272298;23;20005;-70
2021/03/23 01:02:39;;;;;;;26.37;14.87;;;;;;;1.37;93.93;96668.13;1272361;23;20008;-70
2021/03/23 01:03:10;;;;;;;26.23;14.60;;;;;;;1.42;94.10;96673.63;1278840;23;20001;-69
2021/03/23 01:03:40;;;;;;;28.33;15.07;;;;;;;1.42;93.82;96662.28;1278805;23;20001;-71
2021/03/23 01:04:11;;;;;;;30.00;15.83;;;;;;;1.42;94.11;96665.72;1278822;23;20338;-72
2021/03/23 01:04:41;;;;;;;33.73;16.70;;;;;;;1.37;93.68;96668.13;1278853;23;20415;-70
2021/03/23 01:05:13;;;;;;;30.03;15.50;;;;;;;1.39;93.61;96668.75;1278777;23;20423;-70
2021/03/23 01:05:46;;;;;;;27.02;16.27;;;;;;;1.39;94.26;96665.31;1278828;23;20470;-70
2021/03/23 01:06:17;;;;;;;28.20;16.10;;;;;;;1.39;93.81;96673.22;1278739;23;20001;-69
2021/03/23 01:06:47;;;;;;;28.37;15.37;;;;;;;1.33;94.23;96658.16;1278700;23;19997;-71
2021/03/23 01:07:18;;;;;;;27.97;15.87;;;;;;;1.33;94.72;96664.25;1278588;23;20005;-71
2021/03/23 01:07:48;;;;;;;28.33;16.17;;;;;;;1.35;94.27;96669.34;1278525;23;19997;-70
2021/03/23 01:08:19;;;;;;;32.47;16.10;;;;;;;1.32;94.76;96660.00;1278777;23;20079;-70
2021/03/23 01:08:49;;;;;;;27.40;15.83;;;;;;;1.32;94.48;96661.81;1278809;23;20004;-71
2021/03/23 01:09:19;;;;;;;31.27;16.30;;;;;;;1.30;94.41;96664.66;1278756;23;20439;-70
2021/03/23 01:09:50;;;;;;;30.27;17.10;;;;;;;1.30;94.64;96662.03;1278419;23;20418;-71
2021/03/23 01:10:21;;;;;;;28.57;15.63;;;;;;;1.30;94.75;96657.56;1278389;23;20001;-70
2021/03/23 01:10:51;;;;;;;29.10;15.30;;;;;;;1.29;94.18;96661.22;1272214;23;20078;-71
2021/03/23 01:11:22;;;;;;;24.53;15.13;;;;;;;1.30;94.58;96665.47;1272463;23;20420;-70
2021/03/23 01:11:53;;;;;;;28.13;15.17;;;;;;;1.30;94.68;96660.19;1278420;23;20430;-71
2021/03/23 01:12:23;;;;;;;29.40;16.67;;;;;;;1.29;94.09;96657.78;1278405;23;20028;-71
2021/03/23 01:12:54;;;;;;;28.37;15.53;;;;;;;1.28;94.53;96661.41;1278762;23;20322;-71
2021/03/23 01:13:24;;;;;;;37.03;17.00;;;;;;;1.29;94.63;96660.41;1278442;23;20509;-71
2021/03/23 01:13:55;;;;;;;24.50;15.83;;;;;;;1.28;94.74;96658.78;1278436;23;20422;-71
2021/03/23 01:14:26;;;;;;;27.10;15.93;;;;;;;1.27;94.95;96663.22;1278426;23;20055;-71
2021/03/23 01:14:56;;;;;;;30.58;16.45;;;;;;;1.28;94.89;96658.78;1278364;23;20055;-71
2021/03/23 01:15:29;;;;;;;32.77;15.43;;;;;;;1.28;94.87;96656.16;1278449;23;20411;-71
2021/03/23 01:16:00;;;;;;;28.58;16.08;;;;;;;1.25;94.50;96661.78;1272248;23;20461;-71
2021/03/23 01:16:30;;;;;;;28.93;15.80;;;;;;;1.25;94.39;96657.34;1272223;23;20001;-72
2021/03/23 01:17:01;;;;;;;26.07;14.97;;;;;;;1.25;94.63;96661.78;1272890;23;19994;-71
2021/03/23 01:17:31;;;;;;;29.57;16.43;;;;;;;1.25;94.75;96662.59;1278386;23;20001;-71
2021/03/23 01:18:01;;;;;;;30.63;15.43;;;;;;;1.23;94.48;96656.72;1278756;23;19993;-71
2021/03/23 01:18:32;;;;;;;26.70;15.73;;;;;;;1.25;95.19;96661.78;1278476;23;20028;-71
2021/03/23 01:19:02;;;;;;;27.07;15.37;;;;;;;1.30;94.37;96659.38;1278684;23;19997;-72
2021/03/23 01:19:33;;;;;;;26.30;14.70;;;;;;;1.31;94.62;96666.28;1278793;23;20315;-72
2021/03/23 01:20:05;;;;;;;28.80;16.10;;;;;;;1.32;94.07;96657.38;1278430;23;20406;-71
2021/03/23 01:20:35;;;;;;;25.73;15.75;;;;;;;1.34;94.04;96662.47;1278373;23;20500;-71
2021/03/23 01:21:06;;;;;;;28.00;15.77;;;;;;;1.33;94.19;96663.44;1278344;23;20105;-71
2021/03/23 01:21:36;;;;;;;30.00;16.00;;;;;;;1.31;94.56;96655.75;1278297;23;20025;-71
2021/03/23 01:22:06;;;;;;;27.57;15.20;;;;;;;1.34;94.35;96660.63;1278371;23;20048;-71
2021/03/23 01:22:37;;;;;;;25.43;15.47;;;;;;;1.31;93.96;96658.38;1278808;23;19989;-71
2021/03/23 01:23:07;;;;;;;28.47;16.03;;;;;;;1.30;94.62;96654.13;1278750;23;20064;-70
2021/03/23 01:23:38;;;;;;;27.47;15.87;;;;;;;1.31;94.01;96663.66;1278836;23;20418;-69
2021/03/23 01:24:08;;;;;;;32.10;16.50;;;;;;;1.32;93.91;96659.19;1278755;23;19997;-70
2021/03/23 01:24:39;;;;;;;30.73;15.80;;;;;;;1.30;94.07;96659.38;1278756;23;20060;-70
2021/03/23 01:25:10;;;;;;;31.77;16.80;;;;;;;1.29;94.39;96661.22;1278673;23;20323;-70
2021/03/23 01:25:43;;;;;;;28.10;16.23;;;;;;;1.30;94.06;96659.38;1278267;23;19993;-70
2021/03/23 01:26:14;;;;;;;29.95;15.70;;;;;;;1.29;94.19;96660.41;1278280;23;20474;-71
2021/03/23 01:26:44;;;;;;;28.80;15.93;;;;;;;1.27;94.72;96655.31;1271732;23;20013;-70
2021/03/23 01:27:14;;;;;;;28.23;16.13;;;;;;;1.30;94.29;96654.13;1272920;23;20340;-71
2021/03/23 01:27:48;;;;;;;29.77;16.03;;;;;;;1.31;94.47;96655.75;1272157;23;20124;-71
2021/03/23 01:28:19;;;;;;;29.88;15.55;;;;;;;1.28;94.46;96654.34;1272834;23;20497;-71
2021/03/23 01:28:49;;;;;;;27.80;15.30;;;;;;;1.29;94.48;96658.59;1278359;23;19989;-71
2021/03/23 01:29:19;;;;;;;29.73;15.60;;;;;;;1.29;94.53;96657.78;1278356;23;19989;-71
2021/03/23 01:29:50;;;;;;;27.40;16.43;;;;;;;1.30;94.33;96660.19;1278799;23;19993;-71
2021/03/23 01:30:23;;;;;;;26.37;15.67;;;;;;;1.29;94.74;96652.50;1278688;23;19986;-71
2021/03/23 01:30:53;;;;;;;29.83;16.80;;;;;;;1.27;94.62;96659.78;1278743;23;20351;-72
2021/03/23 01:31:23;;;;;;;27.47;16.00;;;;;;;1.25;94.52;96656.53;1278685;23;20004;-72
2021/03/23 01:31:54;;;;;;;26.97;14.83;;;;;;;1.25;94.87;96654.72;1278722;23;19996;-71
2021/03/23 01:32:24;;;;;;;27.80;15.37;;;;;;;1.25;94.79;96659.16;1278371;23;19993;-70
2021/03/23 01:32:55;;;;;;;28.27;16.27;;;;;;;1.25;94.77;96661.78;1278421;23;20001;-71
2021/03/23 01:33:25;;;;;;;24.93;15.57;;;;;;;1.24;94.30;96652.28;1271893;23;20031;-70
2021/03/23 01:33:56;;;;;;;26.67;15.87;;;;;;;1.23;95.04;96650.66;1265978;23;20020;-70
2021/03/23 01:34:26;;;;;;;32.20;16.20;;;;;;;1.25;94.33;96654.72;1272204;23;20057;-71
2021/03/23 01:34:57;;;;;;;28.67;16.47;;;;;;;1.22;94.54;96649.00;1272316;23;19989;-70
2021/03/23 01:35:27;;;;;;;34.63;17.03;;;;;;;1.20;94.87;96649.22;1278328;23;19989;-71
2021/03/23 01:35:57;;;;;;;28.47;16.77;;;;;;;1.21;94.76;96650.03;1278786;23;20000;-71
2021/03/23 01:36:28;;;;;;;31.03;17.23;;;;;;;1.19;94.68;96652.84;1278729;23;20311;-71
2021/03/23 01:36:58;;;;;;;30.03;16.73;;;;;;;1.19;94.79;96644.97;1278754;23;20360;-71
2021/03/23 01:37:29;;;;;;;29.87;16.20;;;;;;;1.21;95.32;96650.84;1278672;23;19997;-71
2021/03/23 01:37:59;;;;;;;32.50;17.87;;;;;;;1.20;94.89;96651.03;1278781;23;19997;-72
2021/03/23 01:38:29;;;;;;;30.60;16.33;;;;;;;1.19;94.89;96647.59;1278576;23;19993;-71
2021/03/23 01:39:00;;;;;;;26.97;14.97;;;;;;;1.21;95.36;96650.03;1278652;23;19993;-71
2021/03/23 01:39:30;;;;;;;29.00;16.00;;;;;;;1.21;94.74;96642.13;1278633;23;20001;-70
2021/03/23 01:40:01;;;;;;;27.83;16.13;;;;;;;1.21;95.24;96645.56;1278726;23;20315;-70
2021/03/23 01:40:31;;;;;;;33.57;16.03;;;;;;;1.20;94.66;96646.56;1278353;23;20410;-70
2021/03/23 01:41:02;;;;;;;31.93;16.93;;;;;;;1.21;94.95;96644.75;1278277;23;20000;-71
2021/03/23 01:41:32;;;;;;;32.07;16.80;;;;;;;1.19;95.32;96641.50;1278315;23;20024;-71
2021/03/23 01:42:03;;;;;;;30.07;16.10;;;;;;;1.20;94.93;96648.41;1278413;23;20001;-71
2021/03/23 01:42:52;;;;;;;32.97;17.50;;;;;;;1.18;94.88;96645.97;1278742;23;19997;-70
2021/03/23 01:43:27;;;;;;;28.63;16.55;;;;;;;1.19;95.50;96641.50;1278669;23;19996;-71
2021/03/23 01:43:57;;;;;;;28.38;16.52;;;;;;;1.20;95.30;96648.41;1278734;23;20326;-70
2021/03/23 01:44:28;;;;;;;30.47;18.30;;;;;;;1.20;95.55;96643.13;1278768;23;20004;-70
2021/03/23 01:45:19;;;;;;;26.43;16.77;;;;;;;1.18;95.37;96640.72;1278680;23;19997;-70
2021/03/23 01:45:50;;;;;;;27.65;16.88;;;;;;;1.19;94.94;96644.16;1278789;23;20012;-70
2021/03/23 01:46:38;;;;;;;30.60;17.42;;;;;;;1.20;94.82;96640.50;1278315;23;20067;-71
2021/03/23 01:47:09;;;;;;;31.35;17.77;;;;;;;1.22;95.30;96641.09;1278762;23;20004;-70
2021/03/23 01:47:39;;;;;;;31.93;18.93;;;;;;;1.22;95.18;96641.09;1271706;23;20498;-71
2021/03/23 01:48:23;;;;;;;32.40;17.80;;;;;;;1.21;94.78;96647.38;1259960;23;20002;-70
2021/03/23 01:48:53;;;;;;;31.92;18.00;;;;;;;1.17;95.09;96636.41;1259712;23;20007;-70
2021/03/23 01:49:27;;;;;;;35.03;19.17;;;;;;;1.13;95.41;96639.66;1259374;23;19999;-70
2021/03/23 01:49:57;;;;;;;35.08;19.05;;;;;;;1.14;95.85;96636.81;1266584;23;20436;-70
2021/03/23 01:50:28;;;;;;;30.67;18.20;;;;;;;1.13;95.35;96631.78;1266103;23;20001;-70
2021/03/23 01:51:01;;;;;;;31.03;18.43;;;;;;;1.14;95.54;96634.19;1266670;23;20053;-71
2021/03/23 01:51:32;;;;;;;38.60;19.27;;;;;;;1.15;95.57;96635.00;1273607;23;20017;-71
2021/03/23 01:52:07;;;;;;;31.70;18.07;;;;;;;1.20;95.51;96643.13;1279355;23;20013;-69
2021/03/23 01:52:37;;;;;;;33.17;17.88;;;;;;;1.18;95.39;96632.00;1284570;23;20033;-70
2021/03/23 01:53:12;;;;;;;31.63;17.80;;;;;;;1.14;94.68;96633.38;1283158;23;20347;-71
2021/03/23 01:53:47;;;;;;;30.13;18.02;;;;;;;1.14;95.15;96634.19;1284484;23;20509;-70
2021/03/23 01:54:21;;;;;;;38.25;19.90;;;;;;;1.14;95.14;96639.47;1278198;23;20012;-71
2021/03/23 01:54:55;;;;;;;31.05;17.48;;;;;;;1.15;94.93;96632.38;1272126;23;20068;-71
2021/03/23 01:55:25;;;;;;;34.17;17.80;;;;;;;1.13;95.80;96629.13;1266064;23;20515;-71
2021/03/23 01:55:59;;;;;;;31.60;19.30;;;;;;;1.14;95.08;96630.75;1261422;23;19994;-71
2021/03/23 01:56:29;;;;;;;33.42;19.30;;;;;;;1.11;95.50;96633.75;1267452;23;20014;-71
2021/03/23 01:57:00;;;;;;;35.63;18.43;;;;;;;1.11;95.12;96631.13;1272799;23;20001;-71
2021/03/23 01:57:31;;;;;;;34.42;19.05;;;;;;;1.09;95.23;96626.06;1266887;23;20313;-71
2021/03/23 01:58:01;;;;;;;31.50;18.70;;;;;;;1.11;95.00;96625.88;1272124;23;20012;-71
2021/03/23 01:58:33;;;;;;;33.33;18.90;;;;;;;1.13;95.50;96626.50;1272104;23;20004;-71
2021/03/23 01:59:03;;;;;;;36.58;18.63;;;;;;;1.14;95.42;96631.56;1272758;23;20427;-71
2021/03/23 01:59:39;;;;;;;32.17;18.80;;;;;;;1.15;95.07;96624.47;1265538;23;20001;-71
2021/03/23 02:00:10;;;;;;;34.50;18.67;;;;;;;1.11;95.58;96631.13;1259855;23;20069;-71
2021/03/23 02:00:43;;;;;;;35.17;19.27;;;;;;;1.08;95.25;96626.28;1259882;23;20367;-71
2021/03/23 02:01:14;;;;;;;39.15;19.80;;;;;;;1.04;95.34;96628.47;1265349;23;20333;-71
2021/03/23 02:01:45;;;;;;;33.95;18.83;;;;;;;1.01;95.38;96632.28;1278355;23;20606;-71
2021/03/23 02:02:15;;;;;;;36.47;18.93;;;;;;;0.99;95.82;96626.41;1278624;23;20001;-71
2021/03/23 02:02:46;;;;;;;36.67;19.17;;;;;;;1.01;95.68;96628.84;1278664;23;20228;-71
2021/03/23 02:03:17;;;;;;;39.77;19.77;;;;;;;1.00;95.83;96632.50;1278485;23;20072;-71
2021/03/23 02:03:48;;;;;;;31.80;18.40;;;;;;;0.98;95.44;96630.06;1278336;23;20016;-71
2021/03/23 02:04:18;;;;;;;29.57;18.40;;;;;;;0.98;96.05;96630.06;1278581;23;20016;-70
2021/03/23 02:04:49;;;;;;;33.33;19.90;;;;;;;0.94;95.99;96623.56;1278593;23;20232;-70
2021/03/23 02:05:28;;;;;;;33.63;18.93;;;;;;;0.93;96.26;96621.13;1278597;23;20012;-70
2021/03/23 02:05:59;;;;;;;35.45;19.40;;;;;;;0.92;95.59;96635.28;1278317;23;19999;-70
2021/03/23 02:06:38;;;;;;;34.58;18.95;;;;;;;0.89;96.23;96625.97;1278681;23;20087;-70
2021/03/23 02:07:08;;;;;;;34.40;19.08;;;;;;;0.88;95.91;96632.22;1278694;23;20001;-70
2021/03/23 02:07:40;;;;;;;36.00;19.37;;;;;;;0.85;96.27;96619.44;1278196;23;20000;-70
2021/03/23 02:08:11;;;;;;;34.80;18.35;;;;;;;0.82;96.72;96622.47;1266029;23;20352;-70
2021/03/23 02:08:41;;;;;;;32.33;18.93;;;;;;;0.81;96.83;96623.47;1259934;23;20013;-70
2021/03/23 02:09:17;;;;;;;36.43;18.90;;;;;;;0.79;97.05;96620.22;1254304;23;20011;-70
2021/03/23 02:09:51;;;;;;;29.45;17.85;;;;;;;0.78;97.07;96626.50;1261298;23;20002;-71
2021/03/23 02:10:21;;;;;;;36.70;18.48;;;;;;;0.77;96.53;96633.59;1267875;23;20006;-71
2021/03/23 02:10:52;;;;;;;29.63;17.77;;;;;;;0.77;96.39;96628.31;1267778;23;19998;-71
2021/03/23 02:11:23;;;;;;;34.20;19.27;;;;;;;0.75;96.83;96627.69;1255396;23;20010;-71
2021/03/23 02:12:03;;;;;;;37.07;19.13;;;;;;;0.75;96.65;96624.25;1259956;23;19998;-71
2021/03/23 02:12:34;;;;;;;33.22;18.55;;;;;;;0.73;96.94;96621.00;1262165;23;20002;-71
2021/03/23 02:13:06;;;;;;;36.17;19.60;;;;;;;0.73;97.31;96623.63;1266497;23;19995;-71
2021/03/23 02:13:36;;;;;;;36.45;20.63;;;;;;;0.72;96.95;96624.63;1272074;23;19997;-71
2021/03/23 02:14:07;;;;;;;38.13;19.37;;;;;;;0.71;97.58;96629.06;1272135;23;19998;-71
2021/03/23 02:14:40;;;;;;;38.80;20.27;;;;;;;0.72;97.37;96622.81;1260378;23;20018;-71
2021/03/23 02:15:11;;;;;;;33.50;19.67;;;;;;;0.71;97.06;96617.72;1260934;23;20070;-70
2021/03/23 02:15:42;;;;;;;37.78;19.15;;;;;;;0.71;97.45;96625.63;1266036;23;20041;-71
2021/03/23 02:16:12;;;;;;;35.37;17.87;;;;;;;0.70;97.13;96627.44;1261677;23;20065;-71
2021/03/23 02:16:43;;;;;;;35.63;19.97;;;;;;;0.70;97.36;96629.25;1272296;23;20028;-70
2021/03/23 02:17:26;;;;;;;32.65;19.30;;;;;;;0.70;97.55;96630.06;1278292;23;20009;-70
2021/03/23 02:18:12;;;;;;;36.00;20.05;;;;;;;0.70;96.92;96619.56;1278416;23;20080;-71
2021/03/23 02:18:43;;;;;;;37.10;19.95;;;;;;;0.70;97.03;96618.75;1278377;23;20135;-71
2021/03/23 02:19:14;;;;;;;35.93;20.87;;;;;;;0.71;97.03;96620.34;1278613;23;20009;-70
2021/03/23 02:19:45;;;;;;;38.83;21.33;;;;;;;0.75;96.92;96622.41;1278293;23;20005;-71
2021/03/23 02:20:18;;;;;;;41.37;20.67;;;;;;;0.77;96.74;96619.63;1278161;23;19993;-71
2021/03/23 02:20:58;;;;;;;36.17;19.65;;;;;;;0.77;97.34;96614.34;1278237;23;20327;-70
2021/03/23 02:21:28;;;;;;;37.22;19.25;;;;;;;0.75;96.77;96626.88;1274396;23;20005;-71
2021/03/23 02:21:59;;;;;;;31.60;19.57;;;;;;;0.76;96.70;96625.84;1277434;23;20650;-71
2021/03/23 02:22:49;;;;;;;37.37;19.40;;;;;;;0.77;97.32;96627.50;1278296;23;19989;-70
2021/03/23 02:23:19;;;;;;;40.92;19.40;;;;;;;0.73;97.31;96624.44;1278305;23;20005;-70
2021/03/23 02:23:52;;;;;;;33.57;19.17;;;;;;;0.72;97.03;96617.56;1271656;23;20001;-70
2021/03/23 02:24:22;;;;;;;35.65;20.65;;;;;;;0.74;97.68;96612.09;1271867;23;20005;-71
2021/03/23 02:24:53;;;;;;;41.20;20.17;;;;;;;0.73;97.76;96613.09;1271850;23;20006;-70
2021/03/23 02:25:24;;;;;;;36.10;19.40;;;;;;;0.72;97.14;96625.44;1272512;23;20077;-70
2021/03/23 02:25:54;;;;;;;36.08;19.98;;;;;;;0.76;97.21;96631.13;1278554;23;20013;-70
2021/03/23 02:26:32;;;;;;;33.83;18.50;;;;;;;0.73;97.22;96615.75;1278558;23;20004;-70
2021/03/23 02:27:03;;;;;;;34.00;19.75;;;;;;;0.74;96.82;96622.63;1278652;23;20327;-70